KOPL/OPL METAR and TAF weather

Enter ICAO airport designator
Station Type Date Time Source
KOPL METAR 2024/04/15 08:10 UTC NOAA

KOPL 150810Z AUTO 14004KT 10SM CLR 17/17 A2998 RMK AO2 T01730165


Station Type Date Time Source
KOPL Decoded METAR 2024/04/15 08:10 UTC NOAA

Station name not available
Apr 15, 2024 - 04:10 AM EDT / 2024.04.15 0810 UTC
Wind: from the SE (140 degrees) at 5 MPH (4 KT):0
Visibility: 10 mile(s):0
Sky conditions: clear
Temperature: 63.1 F (17.3 C)
Dew Point: 61.7 F (16.5 C)
Relative Humidity: 95%
Pressure (altimeter): 29.98 in. Hg (1015 hPa)
ob: KOPL 150810Z AUTO 14004KT 10SM CLR 17/17 A2998 RMK AO2 T01730165
cycle: 8

Station Type Date Time Source
KOPL TAF UTC NOAA

Error!

Example: see airport list